sensor_id;sensor_type;location;lat;lon;timestamp;P1;durP1;ratioP1;P2;durP2;ratioP2
38435;SDS011;24220;48.168;14.024;2022-11-18T00:01:17;16.40;;;12.05;;
38435;SDS011;24220;48.168;14.024;2022-11-18T00:03:49;17.67;;;11.95;;
38435;SDS011;24220;48.168;14.024;2022-11-18T00:06:20;22.40;;;12.18;;
38435;SDS011;24220;48.168;14.024;2022-11-18T00:08:50;22.52;;;12.88;;
38435;SDS011;24220;48.168;14.024;2022-11-18T00:11:22;14.23;;;12.63;;
38435;SDS011;24220;48.168;14.024;2022-11-18T00:14:14;16.17;;;12.27;;
38435;SDS011;24220;48.168;14.024;2022-11-18T00:16:59;14.20;;;11.77;;
38435;SDS011;24220;48.168;14.024;2022-11-18T00:19:34;15.90;;;11.95;;
38435;SDS011;24220;48.168;14.024;2022-11-18T00:22:03;16.23;;;12.15;;
38435;SDS011;24220;48.168;14.024;2022-11-18T00:24:34;16.08;;;12.60;;
38435;SDS011;24220;48.168;14.024;2022-11-18T00:27:01;14.98;;;12.48;;
38435;SDS011;24220;48.168;14.024;2022-11-18T00:29:29;14.60;;;11.85;;
38435;SDS011;24220;48.168;14.024;2022-11-18T00:31:57;15.57;;;12.95;;
38435;SDS011;24220;48.168;14.024;2022-11-18T00:34:26;18.30;;;13.35;;
38435;SDS011;24220;48.168;14.024;2022-11-18T00:36:54;28.50;;;13.75;;
38435;SDS011;24220;48.168;14.024;2022-11-18T00:39:21;17.23;;;13.43;;
38435;SDS011;24220;48.168;14.024;2022-11-18T00:41:51;18.90;;;13.02;;
38435;SDS011;24220;48.168;14.024;2022-11-18T00:44:37;21.15;;;13.00;;
38435;SDS011;24220;48.168;14.024;2022-11-18T00:47:07;23.30;;;13.77;;
38435;SDS011;24220;48.168;14.024;2022-11-18T00:49:36;19.25;;;12.52;;
38435;SDS011;24220;48.168;14.024;2022-11-18T00:52:04;38.22;;;13.43;;
38435;SDS011;24220;48.168;14.024;2022-11-18T00:54:33;30.88;;;12.23;;
38435;SDS011;24220;48.168;14.024;2022-11-18T00:57:01;29.85;;;13.05;;
38435;SDS011;24220;48.168;14.024;2022-11-18T00:59:33;19.95;;;13.60;;
38435;SDS011;24220;48.168;14.024;2022-11-18T01:02:00;19.00;;;12.40;;
38435;SDS011;24220;48.168;14.024;2022-11-18T01:04:27;21.27;;;13.02;;
38435;SDS011;24220;48.168;14.024;2022-11-18T01:06:55;23.23;;;12.90;;
38435;SDS011;24220;48.168;14.024;2022-11-18T01:09:22;22.02;;;13.85;;
38435;SDS011;24220;48.168;14.024;2022-11-18T01:11:49;23.52;;;13.20;;
38435;SDS011;24220;48.168;14.024;2022-11-18T01:14:36;24.08;;;12.82;;
38435;SDS011;24220;48.168;14.024;2022-11-18T01:17:03;21.88;;;13.02;;
38435;SDS011;24220;48.168;14.024;2022-11-18T01:19:30;20.70;;;13.68;;
38435;SDS011;24220;48.168;14.024;2022-11-18T01:21:58;16.35;;;13.40;;
38435;SDS011;24220;48.168;14.024;2022-11-18T01:24:29;22.05;;;12.88;;
38435;SDS011;24220;48.168;14.024;2022-11-18T01:26:58;15.15;;;12.63;;
38435;SDS011;24220;48.168;14.024;2022-11-18T01:29:28;15.57;;;12.75;;
38435;SDS011;24220;48.168;14.024;2022-11-18T01:31:58;14.63;;;12.85;;
38435;SDS011;24220;48.168;14.024;2022-11-18T01:34:45;15.57;;;12.20;;
38435;SDS011;24220;48.168;14.024;2022-11-18T01:37:13;14.30;;;12.00;;
38435;SDS011;24220;48.168;14.024;2022-11-18T01:39:43;14.20;;;11.35;;
38435;SDS011;24220;48.168;14.024;2022-11-18T01:42:14;15.13;;;11.90;;
38435;SDS011;24220;48.168;14.024;2022-11-18T01:47:41;15.00;;;12.68;;
38435;SDS011;24220;48.168;14.024;2022-11-18T01:50:12;17.52;;;13.82;;
38435;SDS011;24220;48.168;14.024;2022-11-18T01:52:41;24.00;;;13.45;;
38435;SDS011;24220;48.168;14.024;2022-11-18T01:55:22;16.55;;;13.18;;
38435;SDS011;24220;48.168;14.024;2022-11-18T01:58:14;21.75;;;13.88;;
38435;SDS011;24220;48.168;14.024;2022-11-18T02:00:53;15.93;;;12.82;;
38435;SDS011;24220;48.168;14.024;2022-11-18T02:03:20;18.00;;;13.20;;
38435;SDS011;24220;48.168;14.024;2022-11-18T02:05:51;15.38;;;12.82;;
38435;SDS011;24220;48.168;14.024;2022-11-18T02:08:20;15.70;;;12.38;;
38435;SDS011;24220;48.168;14.024;2022-11-18T02:10:49;15.48;;;12.45;;
38435;SDS011;24220;48.168;14.024;2022-11-18T02:13:16;17.00;;;13.38;;
38435;SDS011;24220;48.168;14.024;2022-11-18T02:29:19;15.23;;;12.27;;
38435;SDS011;24220;48.168;14.024;2022-11-18T02:34:47;17.48;;;13.13;;
38435;SDS011;24220;48.168;14.024;2022-11-18T02:37:35;17.98;;;13.43;;
38435;SDS011;24220;48.168;14.024;2022-11-18T02:43:06;17.02;;;12.85;;
38435;SDS011;24220;48.168;14.024;2022-11-18T02:45:42;17.20;;;12.80;;
38435;SDS011;24220;48.168;14.024;2022-11-18T02:48:19;17.05;;;13.20;;
38435;SDS011;24220;48.168;14.024;2022-11-18T02:50:50;19.27;;;12.85;;
38435;SDS011;24220;48.168;14.024;2022-11-18T02:53:20;18.23;;;13.05;;
38435;SDS011;24220;48.168;14.024;2022-11-18T02:55:48;20.33;;;13.82;;
38435;SDS011;24220;48.168;14.024;2022-11-18T02:58:20;17.63;;;12.98;;
38435;SDS011;24220;48.168;14.024;2022-11-18T03:00:53;19.83;;;13.50;;
38435;SDS011;24220;48.168;14.024;2022-11-18T03:03:34;17.38;;;12.52;;
38435;SDS011;24220;48.168;14.024;2022-11-18T03:08:49;18.83;;;13.00;;
38435;SDS011;24220;48.168;14.024;2022-11-18T03:20:21;22.08;;;15.13;;
38435;SDS011;24220;48.168;14.024;2022-11-18T03:23:06;19.75;;;14.75;;
38435;SDS011;24220;48.168;14.024;2022-11-18T03:28:35;22.23;;;15.50;;
38435;SDS011;24220;48.168;14.024;2022-11-18T03:31:22;20.17;;;16.13;;
38435;SDS011;24220;48.168;14.024;2022-11-18T03:34:12;23.20;;;16.02;;
38435;SDS011;24220;48.168;14.024;2022-11-18T03:36:50;20.30;;;15.23;;
38435;SDS011;24220;48.168;14.024;2022-11-18T03:39:27;21.33;;;15.63;;
38435;SDS011;24220;48.168;14.024;2022-11-18T03:42:00;20.77;;;15.75;;
38435;SDS011;24220;48.168;14.024;2022-11-18T03:44:38;18.77;;;14.93;;
38435;SDS011;24220;48.168;14.024;2022-11-18T03:47:19;19.42;;;14.52;;
38435;SDS011;24220;48.168;14.024;2022-11-18T03:49:55;18.05;;;14.73;;
38435;SDS011;24220;48.168;14.024;2022-11-18T03:52:27;18.45;;;14.20;;
38435;SDS011;24220;48.168;14.024;2022-11-18T03:55:04;18.00;;;14.25;;
38435;SDS011;24220;48.168;14.024;2022-11-18T04:00:25;20.48;;;15.18;;
38435;SDS011;24220;48.168;14.024;2022-11-18T04:02:57;19.85;;;15.35;;
38435;SDS011;24220;48.168;14.024;2022-11-18T04:05:27;19.17;;;15.13;;
38435;SDS011;24220;48.168;14.024;2022-11-18T04:08:02;18.25;;;15.18;;
38435;SDS011;24220;48.168;14.024;2022-11-18T04:10:36;18.35;;;15.70;;
38435;SDS011;24220;48.168;14.024;2022-11-18T04:15:40;18.88;;;14.57;;
38435;SDS011;24220;48.168;14.024;2022-11-18T04:18:11;20.42;;;14.98;;
38435;SDS011;24220;48.168;14.024;2022-11-18T04:20:39;17.98;;;14.43;;
38435;SDS011;24220;48.168;14.024;2022-11-18T04:23:06;17.70;;;14.75;;
38435;SDS011;24220;48.168;14.024;2022-11-18T04:25:34;20.23;;;15.75;;
38435;SDS011;24220;48.168;14.024;2022-11-18T04:28:02;20.10;;;15.82;;
38435;SDS011;24220;48.168;14.024;2022-11-18T04:30:29;18.92;;;15.70;;
38435;SDS011;24220;48.168;14.024;2022-11-18T04:32:57;20.55;;;14.57;;
38435;SDS011;24220;48.168;14.024;2022-11-18T04:35:27;18.98;;;15.40;;
38435;SDS011;24220;48.168;14.024;2022-11-18T04:37:56;21.20;;;14.80;;
38435;SDS011;24220;48.168;14.024;2022-11-18T04:40:23;19.88;;;15.45;;
38435;SDS011;24220;48.168;14.024;2022-11-18T04:42:54;19.73;;;15.25;;
38435;SDS011;24220;48.168;14.024;2022-11-18T04:45:21;19.75;;;15.80;;
38435;SDS011;24220;48.168;14.024;2022-11-18T04:47:48;22.42;;;15.10;;
38435;SDS011;24220;48.168;14.024;2022-11-18T04:50:16;19.05;;;15.27;;
38435;SDS011;24220;48.168;14.024;2022-11-18T04:52:45;20.42;;;16.10;;
38435;SDS011;24220;48.168;14.024;2022-11-18T04:55:12;21.95;;;16.23;;
38435;SDS011;24220;48.168;14.024;2022-11-18T04:57:42;20.42;;;15.27;;
38435;SDS011;24220;48.168;14.024;2022-11-18T05:00:10;26.30;;;15.70;;
38435;SDS011;24220;48.168;14.024;2022-11-18T05:02:38;21.05;;;15.45;;
38435;SDS011;24220;48.168;14.024;2022-11-18T05:05:05;23.02;;;16.80;;
38435;SDS011;24220;48.168;14.024;2022-11-18T05:07:33;19.88;;;15.40;;
38435;SDS011;24220;48.168;14.024;2022-11-18T05:10:00;18.75;;;15.43;;
38435;SDS011;24220;48.168;14.024;2022-11-18T05:12:27;19.40;;;14.85;;
38435;SDS011;24220;48.168;14.024;2022-11-18T05:15:20;19.00;;;15.38;;
38435;SDS011;24220;48.168;14.024;2022-11-18T05:17:51;20.98;;;16.15;;
38435;SDS011;24220;48.168;14.024;2022-11-18T05:20:18;20.73;;;15.77;;
38435;SDS011;24220;48.168;14.024;2022-11-18T05:22:48;21.73;;;16.48;;
38435;SDS011;24220;48.168;14.024;2022-11-18T05:25:15;19.83;;;16.05;;
38435;SDS011;24220;48.168;14.024;2022-11-18T05:27:42;20.95;;;15.40;;
38435;SDS011;24220;48.168;14.024;2022-11-18T05:30:10;19.30;;;15.82;;
38435;SDS011;24220;48.168;14.024;2022-11-18T05:32:38;19.15;;;15.98;;
38435;SDS011;24220;48.168;14.024;2022-11-18T05:35:07;17.77;;;14.57;;
38435;SDS011;24220;48.168;14.024;2022-11-18T05:37:35;22.48;;;16.10;;
38435;SDS011;24220;48.168;14.024;2022-11-18T05:40:02;20.23;;;16.55;;
38435;SDS011;24220;48.168;14.024;2022-11-18T05:42:32;20.23;;;15.80;;
38435;SDS011;24220;48.168;14.024;2022-11-18T05:45:18;20.90;;;15.90;;
38435;SDS011;24220;48.168;14.024;2022-11-18T05:47:46;19.88;;;15.80;;
38435;SDS011;24220;48.168;14.024;2022-11-18T05:50:25;21.17;;;15.25;;
38435;SDS011;24220;48.168;14.024;2022-11-18T05:52:55;20.38;;;15.90;;
38435;SDS011;24220;48.168;14.024;2022-11-18T05:55:23;18.08;;;15.27;;
38435;SDS011;24220;48.168;14.024;2022-11-18T05:57:56;21.20;;;15.32;;
38435;SDS011;24220;48.168;14.024;2022-11-18T06:00:23;20.98;;;14.95;;
38435;SDS011;24220;48.168;14.024;2022-11-18T06:02:51;19.48;;;14.80;;
38435;SDS011;24220;48.168;14.024;2022-11-18T06:05:20;19.00;;;15.00;;
38435;SDS011;24220;48.168;14.024;2022-11-18T06:07:50;18.35;;;14.82;;
38435;SDS011;24220;48.168;14.024;2022-11-18T06:10:22;23.95;;;14.48;;
38435;SDS011;24220;48.168;14.024;2022-11-18T06:12:53;18.52;;;15.50;;
38435;SDS011;24220;48.168;14.024;2022-11-18T06:15:27;16.98;;;14.98;;
38435;SDS011;24220;48.168;14.024;2022-11-18T06:18:03;17.63;;;14.95;;
38435;SDS011;24220;48.168;14.024;2022-11-18T06:20:36;19.50;;;14.80;;
38435;SDS011;24220;48.168;14.024;2022-11-18T06:23:05;18.08;;;14.90;;
38435;SDS011;24220;48.168;14.024;2022-11-18T06:25:32;17.67;;;14.85;;
38435;SDS011;24220;48.168;14.024;2022-11-18T06:28:04;17.23;;;14.32;;
38435;SDS011;24220;48.168;14.024;2022-11-18T06:30:31;21.23;;;16.52;;
38435;SDS011;24220;48.168;14.024;2022-11-18T06:32:59;22.30;;;17.95;;
38435;SDS011;24220;48.168;14.024;2022-11-18T06:35:26;30.58;;;24.80;;
38435;SDS011;24220;48.168;14.024;2022-11-18T06:37:53;27.27;;;21.33;;
38435;SDS011;24220;48.168;14.024;2022-11-18T06:40:21;22.05;;;17.42;;
38435;SDS011;24220;48.168;14.024;2022-11-18T06:42:48;18.55;;;16.00;;
38435;SDS011;24220;48.168;14.024;2022-11-18T06:45:34;19.50;;;16.80;;
38435;SDS011;24220;48.168;14.024;2022-11-18T06:48:02;19.60;;;16.20;;
38435;SDS011;24220;48.168;14.024;2022-11-18T06:50:32;18.58;;;15.63;;
38435;SDS011;24220;48.168;14.024;2022-11-18T06:52:59;18.60;;;15.77;;
38435;SDS011;24220;48.168;14.024;2022-11-18T06:55:27;19.92;;;15.13;;
38435;SDS011;24220;48.168;14.024;2022-11-18T06:57:55;17.70;;;14.77;;
38435;SDS011;24220;48.168;14.024;2022-11-18T07:00:27;16.95;;;14.15;;
38435;SDS011;24220;48.168;14.024;2022-11-18T07:02:57;17.33;;;13.88;;
38435;SDS011;24220;48.168;14.024;2022-11-18T07:05:24;16.77;;;13.60;;
38435;SDS011;24220;48.168;14.024;2022-11-18T07:07:51;17.13;;;13.70;;
38435;SDS011;24220;48.168;14.024;2022-11-18T07:10:19;17.38;;;14.10;;
38435;SDS011;24220;48.168;14.024;2022-11-18T07:12:46;15.68;;;13.98;;
38435;SDS011;24220;48.168;14.024;2022-11-18T07:15:13;16.70;;;13.50;;
38435;SDS011;24220;48.168;14.024;2022-11-18T07:17:43;18.75;;;13.80;;
38435;SDS011;24220;48.168;14.024;2022-11-18T07:20:10;16.35;;;13.90;;
38435;SDS011;24220;48.168;14.024;2022-11-18T07:22:38;17.50;;;15.70;;
38435;SDS011;24220;48.168;14.024;2022-11-18T07:25:05;17.05;;;15.10;;
38435;SDS011;24220;48.168;14.024;2022-11-18T07:27:35;16.45;;;14.27;;
38435;SDS011;24220;48.168;14.024;2022-11-18T07:30:02;15.10;;;12.10;;
38435;SDS011;24220;48.168;14.024;2022-11-18T07:32:31;12.82;;;11.35;;
38435;SDS011;24220;48.168;14.024;2022-11-18T07:34:59;12.10;;;10.80;;
38435;SDS011;24220;48.168;14.024;2022-11-18T07:37:26;11.30;;;10.10;;
38435;SDS011;24220;48.168;14.024;2022-11-18T07:39:53;13.13;;;11.73;;
38435;SDS011;24220;48.168;14.024;2022-11-18T07:42:27;12.38;;;9.48;;
38435;SDS011;24220;48.168;14.024;2022-11-18T07:44:54;13.98;;;12.48;;
38435;SDS011;24220;48.168;14.024;2022-11-18T07:47:22;12.60;;;10.27;;
38435;SDS011;24220;48.168;14.024;2022-11-18T07:49:49;11.70;;;9.98;;
38435;SDS011;24220;48.168;14.024;2022-11-18T07:52:19;8.63;;;7.80;;
38435;SDS011;24220;48.168;14.024;2022-11-18T07:54:46;7.50;;;6.70;;
38435;SDS011;24220;48.168;14.024;2022-11-18T07:57:14;4.80;;;4.22;;
38435;SDS011;24220;48.168;14.024;2022-11-18T07:59:42;3.95;;;3.08;;
38435;SDS011;24220;48.168;14.024;2022-11-18T08:02:12;3.08;;;2.58;;
38435;SDS011;24220;48.168;14.024;2022-11-18T08:04:39;2.85;;;2.42;;
38435;SDS011;24220;48.168;14.024;2022-11-18T08:07:09;1.77;;;1.40;;
38435;SDS011;24220;48.168;14.024;2022-11-18T08:09:39;1.90;;;1.10;;
38435;SDS011;24220;48.168;14.024;2022-11-18T08:12:07;1.40;;;1.30;;
38435;SDS011;24220;48.168;14.024;2022-11-18T08:14:34;1.63;;;1.00;;
38435;SDS011;24220;48.168;14.024;2022-11-18T08:17:04;0.90;;;0.90;;
38435;SDS011;24220;48.168;14.024;2022-11-18T08:19:34;2.45;;;1.20;;
38435;SDS011;24220;48.168;14.024;2022-11-18T08:22:04;1.25;;;1.20;;
38435;SDS011;24220;48.168;14.024;2022-11-18T08:24:31;1.42;;;1.33;;
38435;SDS011;24220;48.168;14.024;2022-11-18T08:27:01;3.30;;;3.10;;
38435;SDS011;24220;48.168;14.024;2022-11-18T08:29:28;4.80;;;4.40;;
38435;SDS011;24220;48.168;14.024;2022-11-18T08:31:58;4.22;;;3.83;;
38435;SDS011;24220;48.168;14.024;2022-11-18T08:34:25;3.05;;;2.75;;
38435;SDS011;24220;48.168;14.024;2022-11-18T08:36:52;4.10;;;3.10;;
38435;SDS011;24220;48.168;14.024;2022-11-18T08:39:20;7.65;;;5.18;;
38435;SDS011;24220;48.168;14.024;2022-11-18T08:41:48;5.68;;;5.07;;
38435;SDS011;24220;48.168;14.024;2022-11-18T08:44:20;4.70;;;3.88;;
38435;SDS011;24220;48.168;14.024;2022-11-18T08:46:48;6.57;;;6.05;;
38435;SDS011;24220;48.168;14.024;2022-11-18T08:49:15;7.28;;;4.47;;
38435;SDS011;24220;48.168;14.024;2022-11-18T08:51:43;3.00;;;2.80;;
38435;SDS011;24220;48.168;14.024;2022-11-18T08:54:10;3.53;;;2.83;;
38435;SDS011;24220;48.168;14.024;2022-11-18T08:56:40;9.13;;;8.00;;
38435;SDS011;24220;48.168;14.024;2022-11-18T08:59:07;11.93;;;10.10;;
38435;SDS011;24220;48.168;14.024;2022-11-18T09:01:35;9.02;;;7.45;;
38435;SDS011;24220;48.168;14.024;2022-11-18T09:04:03;5.00;;;4.13;;
38435;SDS011;24220;48.168;14.024;2022-11-18T09:06:33;8.10;;;5.88;;
38435;SDS011;24220;48.168;14.024;2022-11-18T09:09:00;3.92;;;3.28;;
38435;SDS011;24220;48.168;14.024;2022-11-18T09:11:36;9.55;;;8.85;;
38435;SDS011;24220;48.168;14.024;2022-11-18T09:14:09;4.28;;;3.80;;
38435;SDS011;24220;48.168;14.024;2022-11-18T09:16:57;2.20;;;2.05;;
38435;SDS011;24220;48.168;14.024;2022-11-18T09:19:24;5.50;;;3.88;;
38435;SDS011;24220;48.168;14.024;2022-11-18T09:22:12;3.53;;;3.22;;
38435;SDS011;24220;48.168;14.024;2022-11-18T09:24:39;2.95;;;2.70;;
38435;SDS011;24220;48.168;14.024;2022-11-18T09:27:06;2.92;;;1.90;;
38435;SDS011;24220;48.168;14.024;2022-11-18T09:29:40;2.50;;;2.22;;
38435;SDS011;24220;48.168;14.024;2022-11-18T09:32:08;1.63;;;1.52;;
38435;SDS011;24220;48.168;14.024;2022-11-18T09:34:35;2.92;;;2.20;;
38435;SDS011;24220;48.168;14.024;2022-11-18T09:37:03;10.98;;;5.90;;
38435;SDS011;24220;48.168;14.024;2022-11-18T09:39:34;5.75;;;3.65;;
38435;SDS011;24220;48.168;14.024;2022-11-18T09:42:25;8.45;;;5.50;;
38435;SDS011;24220;48.168;14.024;2022-11-18T09:45:12;3.55;;;2.92;;
38435;SDS011;24220;48.168;14.024;2022-11-18T09:47:57;2.40;;;2.20;;
38435;SDS011;24220;48.168;14.024;2022-11-18T09:50:28;9.32;;;2.90;;
38435;SDS011;24220;48.168;14.024;2022-11-18T09:55:47;4.82;;;3.20;;
38435;SDS011;24220;48.168;14.024;2022-11-18T09:58:29;11.68;;;4.13;;
38435;SDS011;24220;48.168;14.024;2022-11-18T10:01:00;4.57;;;2.55;;
38435;SDS011;24220;48.168;14.024;2022-11-18T10:03:30;4.57;;;2.65;;
38435;SDS011;24220;48.168;14.024;2022-11-18T10:14:09;3.83;;;2.20;;
38435;SDS011;24220;48.168;14.024;2022-11-18T10:17:05;5.75;;;2.17;;
38435;SDS011;24220;48.168;14.024;2022-11-18T10:19:56;2.97;;;1.88;;
38435;SDS011;24220;48.168;14.024;2022-11-18T10:22:51;3.95;;;1.80;;
38435;SDS011;24220;48.168;14.024;2022-11-18T10:25:34;5.57;;;2.10;;
38435;SDS011;24220;48.168;14.024;2022-11-18T10:28:13;6.93;;;2.03;;
38435;SDS011;24220;48.168;14.024;2022-11-18T10:30:52;1.17;;;1.10;;
38435;SDS011;24220;48.168;14.024;2022-11-18T10:35:48;5.00;;;1.90;;
38435;SDS011;24220;48.168;14.024;2022-11-18T10:38:17;2.53;;;1.70;;
38435;SDS011;24220;48.168;14.024;2022-11-18T10:46:29;1.23;;;0.90;;
38435;SDS011;24220;48.168;14.024;2022-11-18T10:49:07;6.90;;;1.33;;
38435;SDS011;24220;48.168;14.024;2022-11-18T10:51:43;2.67;;;1.10;;
38435;SDS011;24220;48.168;14.024;2022-11-18T10:59:30;28.30;;;8.07;;
38435;SDS011;24220;48.168;14.024;2022-11-18T11:02:31;17.92;;;4.43;;
38435;SDS011;24220;48.168;14.024;2022-11-18T11:05:21;6.32;;;1.60;;
38435;SDS011;24220;48.168;14.024;2022-11-18T11:08:17;2.85;;;1.40;;
38435;SDS011;24220;48.168;14.024;2022-11-18T11:11:03;6.13;;;1.52;;
38435;SDS011;24220;48.168;14.024;2022-11-18T11:13:30;8.88;;;1.25;;
38435;SDS011;24220;48.168;14.024;2022-11-18T11:16:01;2.60;;;0.82;;
38435;SDS011;24220;48.168;14.024;2022-11-18T11:18:33;3.72;;;1.80;;
38435;SDS011;24220;48.168;14.024;2022-11-18T11:23:44;0.63;;;0.63;;
38435;SDS011;24220;48.168;14.024;2022-11-18T11:26:26;5.00;;;0.80;;
38435;SDS011;24220;48.168;14.024;2022-11-18T11:49:17;5.85;;;1.10;;
38435;SDS011;24220;48.168;14.024;2022-11-18T11:51:52;1.30;;;1.20;;
38435;SDS011;24220;48.168;14.024;2022-11-18T11:56:58;1.48;;;0.70;;
38435;SDS011;24220;48.168;14.024;2022-11-18T11:59:47;1.60;;;0.70;;
38435;SDS011;24220;48.168;14.024;2022-11-18T12:05:15;1.13;;;0.75;;
38435;SDS011;24220;48.168;14.024;2022-11-18T12:08:02;1.52;;;0.60;;
38435;SDS011;24220;48.168;14.024;2022-11-18T12:13:55;1.45;;;1.00;;
38435;SDS011;24220;48.168;14.024;2022-11-18T12:16:45;1.40;;;1.13;;
38435;SDS011;24220;48.168;14.024;2022-11-18T12:19:20;1.17;;;0.90;;
38435;SDS011;24220;48.168;14.024;2022-11-18T12:29:59;0.73;;;0.73;;
38435;SDS011;24220;48.168;14.024;2022-11-18T12:32:36;1.00;;;0.90;;
38435;SDS011;24220;48.168;14.024;2022-11-18T12:43:03;0.90;;;0.90;;
38435;SDS011;24220;48.168;14.024;2022-11-18T12:45:52;1.38;;;1.00;;
38435;SDS011;24220;48.168;14.024;2022-11-18T12:50:58;1.50;;;1.00;;
38435;SDS011;24220;48.168;14.024;2022-11-18T12:56:10;2.90;;;1.48;;
38435;SDS011;24220;48.168;14.024;2022-11-18T12:58:58;3.17;;;2.03;;
38435;SDS011;24220;48.168;14.024;2022-11-18T13:06:34;2.63;;;1.00;;
38435;SDS011;24220;48.168;14.024;2022-11-18T13:09:12;1.40;;;1.20;;
38435;SDS011;24220;48.168;14.024;2022-11-18T13:11:50;1.45;;;1.35;;
38435;SDS011;24220;48.168;14.024;2022-11-18T13:14:23;2.92;;;1.90;;
38435;SDS011;24220;48.168;14.024;2022-11-18T13:22:54;0.68;;;0.68;;
38435;SDS011;24220;48.168;14.024;2022-11-18T13:25:45;0.85;;;0.80;;
38435;SDS011;24220;48.168;14.024;2022-11-18T13:28:31;21.17;;;10.82;;
38435;SDS011;24220;48.168;14.024;2022-11-18T13:33:47;2.70;;;1.90;;
38435;SDS011;24220;48.168;14.024;2022-11-18T13:38:54;1.73;;;1.40;;
38435;SDS011;24220;48.168;14.024;2022-11-18T13:43:50;1.63;;;1.52;;
38435;SDS011;24220;48.168;14.024;2022-11-18T13:46:19;1.58;;;1.25;;
38435;SDS011;24220;48.168;14.024;2022-11-18T13:48:53;13.93;;;12.52;;
38435;SDS011;24220;48.168;14.024;2022-11-18T13:51:27;6.47;;;4.63;;
38435;SDS011;24220;48.168;14.024;2022-11-18T13:53:54;2.30;;;1.92;;
38435;SDS011;24220;48.168;14.024;2022-11-18T13:56:25;1.40;;;1.30;;
38435;SDS011;24220;48.168;14.024;2022-11-18T13:59:00;0.98;;;0.95;;
38435;SDS011;24220;48.168;14.024;2022-11-18T14:01:44;1.05;;;0.70;;
38435;SDS011;24220;48.168;14.024;2022-11-18T14:06:45;2.47;;;1.60;;
38435;SDS011;24220;48.168;14.024;2022-11-18T14:09:23;5.20;;;2.92;;
38435;SDS011;24220;48.168;14.024;2022-11-18T14:14:39;4.72;;;3.05;;
38435;SDS011;24220;48.168;14.024;2022-11-18T14:17:16;2.85;;;2.42;;
38435;SDS011;24220;48.168;14.024;2022-11-18T14:19:48;3.28;;;2.40;;
38435;SDS011;24220;48.168;14.024;2022-11-18T14:22:25;2.22;;;2.03;;
38435;SDS011;24220;48.168;14.024;2022-11-18T14:27:48;1.42;;;1.10;;
38435;SDS011;24220;48.168;14.024;2022-11-18T14:35:47;1.27;;;0.90;;
38435;SDS011;24220;48.168;14.024;2022-11-18T14:38:20;1.02;;;0.93;;
38435;SDS011;24220;48.168;14.024;2022-11-18T14:41:18;0.73;;;0.70;;
38435;SDS011;24220;48.168;14.024;2022-11-18T14:44:13;1.40;;;0.98;;
38435;SDS011;24220;48.168;14.024;2022-11-18T14:46:41;1.67;;;1.40;;
38435;SDS011;24220;48.168;14.024;2022-11-18T14:49:12;2.28;;;1.90;;
38435;SDS011;24220;48.168;14.024;2022-11-18T14:51:45;1.30;;;1.20;;
38435;SDS011;24220;48.168;14.024;2022-11-18T14:54:13;1.60;;;0.80;;
38435;SDS011;24220;48.168;14.024;2022-11-18T14:57:01;1.10;;;1.10;;
38435;SDS011;24220;48.168;14.024;2022-11-18T14:59:30;1.30;;;1.20;;
38435;SDS011;24220;48.168;14.024;2022-11-18T15:01:59;1.52;;;0.90;;
38435;SDS011;24220;48.168;14.024;2022-11-18T15:04:27;1.25;;;1.13;;
38435;SDS011;24220;48.168;14.024;2022-11-18T15:06:54;1.20;;;0.90;;
38435;SDS011;24220;48.168;14.024;2022-11-18T15:09:22;1.83;;;1.50;;
38435;SDS011;24220;48.168;14.024;2022-11-18T15:11:49;1.10;;;1.00;;
38435;SDS011;24220;48.168;14.024;2022-11-18T15:14:19;0.85;;;0.80;;
38435;SDS011;24220;48.168;14.024;2022-11-18T15:19:20;2.33;;;0.90;;
38435;SDS011;24220;48.168;14.024;2022-11-18T15:21:47;0.90;;;0.90;;
38435;SDS011;24220;48.168;14.024;2022-11-18T15:24:15;1.20;;;1.10;;
38435;SDS011;24220;48.168;14.024;2022-11-18T15:26:43;1.98;;;1.40;;
38435;SDS011;24220;48.168;14.024;2022-11-18T15:29:19;1.00;;;1.00;;
38435;SDS011;24220;48.168;14.024;2022-11-18T15:31:48;0.93;;;0.93;;
38435;SDS011;24220;48.168;14.024;2022-11-18T15:34:16;1.27;;;1.20;;
38435;SDS011;24220;48.168;14.024;2022-11-18T15:39:15;0.60;;;0.60;;
38435;SDS011;24220;48.168;14.024;2022-11-18T15:41:42;0.60;;;0.60;;
38435;SDS011;24220;48.168;14.024;2022-11-18T15:44:10;0.50;;;0.50;;
38435;SDS011;24220;48.168;14.024;2022-11-18T15:46:38;0.50;;;0.50;;
38435;SDS011;24220;48.168;14.024;2022-11-18T15:49:05;0.70;;;0.70;;
38435;SDS011;24220;48.168;14.024;2022-11-18T15:51:35;1.20;;;1.10;;
38435;SDS011;24220;48.168;14.024;2022-11-18T15:54:05;2.72;;;1.30;;
38435;SDS011;24220;48.168;14.024;2022-11-18T15:56:35;0.80;;;0.80;;
38435;SDS011;24220;48.168;14.024;2022-11-18T15:59:04;1.10;;;1.00;;
38435;SDS011;24220;48.168;14.024;2022-11-18T16:01:39;0.80;;;0.80;;
38435;SDS011;24220;48.168;14.024;2022-11-18T16:04:12;1.05;;;0.98;;
38435;SDS011;24220;48.168;14.024;2022-11-18T16:06:41;0.70;;;0.70;;
38435;SDS011;24220;48.168;14.024;2022-11-18T16:09:09;0.70;;;0.70;;
38435;SDS011;24220;48.168;14.024;2022-11-18T16:11:40;1.15;;;1.10;;
38435;SDS011;24220;48.168;14.024;2022-11-18T16:14:27;0.70;;;0.70;;
38435;SDS011;24220;48.168;14.024;2022-11-18T16:16:57;0.77;;;0.52;;
38435;SDS011;24220;48.168;14.024;2022-11-18T16:19:25;0.60;;;0.57;;
38435;SDS011;24220;48.168;14.024;2022-11-18T16:21:54;0.77;;;0.77;;
38435;SDS011;24220;48.168;14.024;2022-11-18T16:24:24;0.50;;;0.50;;
38435;SDS011;24220;48.168;14.024;2022-11-18T16:26:57;0.65;;;0.65;;
38435;SDS011;24220;48.168;14.024;2022-11-18T16:29:30;1.00;;;0.90;;
38435;SDS011;24220;48.168;14.024;2022-11-18T16:31:57;1.83;;;1.73;;
38435;SDS011;24220;48.168;14.024;2022-11-18T16:34:25;1.30;;;1.20;;
38435;SDS011;24220;48.168;14.024;2022-11-18T16:36:56;1.13;;;1.07;;
38435;SDS011;24220;48.168;14.024;2022-11-18T16:39:25;1.60;;;1.10;;
38435;SDS011;24220;48.168;14.024;2022-11-18T16:41:55;0.80;;;0.80;;
38435;SDS011;24220;48.168;14.024;2022-11-18T16:44:33;1.23;;;1.13;;
38435;SDS011;24220;48.168;14.024;2022-11-18T16:47:01;1.48;;;1.38;;
38435;SDS011;24220;48.168;14.024;2022-11-18T16:49:38;1.73;;;1.10;;
38435;SDS011;24220;48.168;14.024;2022-11-18T16:52:05;1.30;;;1.20;;
38435;SDS011;24220;48.168;14.024;2022-11-18T16:54:33;1.67;;;1.50;;
38435;SDS011;24220;48.168;14.024;2022-11-18T16:57:06;1.90;;;1.20;;
38435;SDS011;24220;48.168;14.024;2022-11-18T16:59:36;2.25;;;1.20;;
38435;SDS011;24220;48.168;14.024;2022-11-18T17:02:09;1.27;;;1.17;;
38435;SDS011;24220;48.168;14.024;2022-11-18T17:04:38;1.35;;;1.25;;
38435;SDS011;24220;48.168;14.024;2022-11-18T17:07:06;6.03;;;3.20;;
38435;SDS011;24220;48.168;14.024;2022-11-18T17:09:34;3.50;;;3.20;;
38435;SDS011;24220;48.168;14.024;2022-11-18T17:12:01;2.40;;;2.20;;
38435;SDS011;24220;48.168;14.024;2022-11-18T17:14:32;3.50;;;2.67;;
38435;SDS011;24220;48.168;14.024;2022-11-18T17:17:04;1.95;;;1.75;;
38435;SDS011;24220;48.168;14.024;2022-11-18T17:19:32;1.85;;;1.67;;
38435;SDS011;24220;48.168;14.024;2022-11-18T17:22:02;2.10;;;1.90;;
38435;SDS011;24220;48.168;14.024;2022-11-18T17:24:32;1.90;;;1.80;;
38435;SDS011;24220;48.168;14.024;2022-11-18T17:26:59;2.15;;;1.90;;